createdAt,value
2022-12-02T00:01:04.115Z,5.00
2022-12-02T00:03:35.529Z,5.00
2022-12-02T00:06:03.124Z,5.00
2022-12-02T00:08:31.869Z,5.00
2022-12-02T00:11:01.927Z,5.00
2022-12-02T00:13:37.149Z,4.90
2022-12-02T00:16:05.166Z,4.90
2022-12-02T00:18:32.467Z,4.90
2022-12-02T00:20:59.962Z,5.00
2022-12-02T00:23:27.013Z,5.00
2022-12-02T00:25:54.995Z,5.00
2022-12-02T00:28:22.330Z,5.00
2022-12-02T00:30:49.327Z,5.10
2022-12-02T00:33:18.309Z,5.00
2022-12-02T00:35:45.862Z,5.00
2022-12-02T00:38:12.861Z,5.10
2022-12-02T00:40:39.853Z,5.00
2022-12-02T00:43:25.228Z,5.00
2022-12-02T00:46:10.864Z,5.00
2022-12-02T00:48:38.244Z,5.00
2022-12-02T00:51:05.535Z,5.00
2022-12-02T00:53:32.700Z,5.00
2022-12-02T00:55:59.633Z,5.00
2022-12-02T00:58:26.575Z,5.00
2022-12-02T01:00:53.561Z,4.90
2022-12-02T01:03:20.574Z,4.90
2022-12-02T01:05:47.520Z,4.90
2022-12-02T01:08:14.479Z,4.90
2022-12-02T01:10:41.433Z,4.80
2022-12-02T01:13:08.369Z,4.90
2022-12-02T01:15:35.254Z,4.90
2022-12-02T01:18:02.238Z,4.90
2022-12-02T01:20:29.181Z,4.90
2022-12-02T01:22:56.147Z,4.90
2022-12-02T01:25:23.116Z,4.90
2022-12-02T01:27:50.036Z,4.90
2022-12-02T01:30:17.095Z,4.90
2022-12-02T01:32:44.086Z,4.90
2022-12-02T01:35:11.263Z,4.80
2022-12-02T01:37:38.344Z,4.80
2022-12-02T01:40:06.843Z,4.80
2022-12-02T01:42:34.520Z,4.80
2022-12-02T01:45:01.908Z,4.80
2022-12-02T01:47:28.948Z,4.80
2022-12-02T01:49:56.174Z,4.80
2022-12-02T01:52:23.657Z,4.90
2022-12-02T01:54:52.009Z,4.80
2022-12-02T01:57:24.495Z,4.80
2022-12-02T01:59:51.657Z,4.90
2022-12-02T02:02:25.567Z,4.80
2022-12-02T02:04:55.989Z,4.80
2022-12-02T02:07:23.347Z,4.80
2022-12-02T02:09:51.159Z,4.80
2022-12-02T02:12:18.218Z,4.70
2022-12-02T02:14:45.315Z,4.70
2022-12-02T02:17:12.514Z,4.70
2022-12-02T02:19:39.577Z,4.80
2022-12-02T02:22:21.114Z,4.80
2022-12-02T02:24:48.293Z,4.80
2022-12-02T02:27:15.387Z,4.80
2022-12-02T02:29:42.522Z,4.80
2022-12-02T02:32:09.757Z,4.80
2022-12-02T02:34:37.274Z,4.80
2022-12-02T02:37:04.488Z,4.80
2022-12-02T02:39:31.477Z,4.80
2022-12-02T02:41:59.218Z,4.80
2022-12-02T02:44:27.397Z,4.80
2022-12-02T02:46:54.870Z,4.80
2022-12-02T02:49:21.963Z,4.80
2022-12-02T02:51:48.934Z,4.80
2022-12-02T02:54:16.236Z,4.80
2022-12-02T02:56:43.472Z,4.70
2022-12-02T02:59:15.408Z,4.70
2022-12-02T03:01:45.203Z,4.70
2022-12-02T03:04:15.590Z,4.70
2022-12-02T03:06:43.804Z,4.70
2022-12-02T03:09:13.476Z,4.70
2022-12-02T03:11:41.873Z,4.70
2022-12-02T03:14:15.539Z,4.70
2022-12-02T03:16:44.386Z,4.70
2022-12-02T03:19:12.073Z,4.70
2022-12-02T03:21:39.549Z,4.70
2022-12-02T03:24:06.733Z,4.70
2022-12-02T03:26:34.595Z,4.70
2022-12-02T03:29:03.232Z,4.60
2022-12-02T03:31:31.210Z,4.60
2022-12-02T03:33:58.414Z,4.60
2022-12-02T03:36:26.271Z,4.60
2022-12-02T03:38:53.637Z,4.60
2022-12-02T03:41:21.294Z,4.60
2022-12-02T03:43:48.293Z,4.70
2022-12-02T03:46:16.068Z,4.70
2022-12-02T03:48:44.404Z,4.80
2022-12-02T03:51:13.031Z,4.80
2022-12-02T03:53:40.412Z,4.80
2022-12-02T03:56:09.275Z,4.70
2022-12-02T03:58:45.568Z,4.70
2022-12-02T04:01:13.129Z,4.60
2022-12-02T04:03:40.136Z,4.60
2022-12-02T04:06:07.101Z,4.60
2022-12-02T04:08:34.452Z,4.60
2022-12-02T04:11:01.770Z,4.60
2022-12-02T04:13:29.037Z,4.60
2022-12-02T04:15:56.139Z,4.70
2022-12-02T04:18:23.368Z,4.70
2022-12-02T04:20:50.404Z,4.70
2022-12-02T04:23:17.340Z,4.70
2022-12-02T04:25:44.322Z,4.70
2022-12-02T04:28:11.206Z,4.70
2022-12-02T04:30:38.153Z,4.70
2022-12-02T04:33:05.128Z,4.70
2022-12-02T04:35:32.063Z,4.70
2022-12-02T04:37:59.116Z,4.70
2022-12-02T04:40:26.024Z,4.70
2022-12-02T04:42:52.946Z,4.70
2022-12-02T04:45:19.931Z,4.70
2022-12-02T04:47:46.823Z,4.80
2022-12-02T04:50:13.874Z,4.70
2022-12-02T04:52:40.807Z,4.70
2022-12-02T04:55:08.172Z,4.70
2022-12-02T04:57:35.878Z,4.70
2022-12-02T05:00:03.921Z,4.70
2022-12-02T05:02:31.051Z,4.70
2022-12-02T05:04:58.010Z,4.70
2022-12-02T05:07:25.059Z,4.70
2022-12-02T05:09:52.092Z,4.70
2022-12-02T05:12:19.111Z,4.70
2022-12-02T05:14:46.111Z,4.70
2022-12-02T05:17:12.986Z,4.70
2022-12-02T05:19:39.891Z,4.70
2022-12-02T05:22:06.850Z,4.60
2022-12-02T05:24:33.737Z,4.60
2022-12-02T05:27:00.811Z,4.50
2022-12-02T05:29:27.760Z,4.50
2022-12-02T05:31:54.715Z,4.50
2022-12-02T05:34:21.899Z,4.50
2022-12-02T05:36:48.877Z,4.50
2022-12-02T05:39:15.922Z,4.50
2022-12-02T05:41:44.146Z,4.50
2022-12-02T05:44:33.883Z,4.50
2022-12-02T05:47:14.547Z,4.60
2022-12-02T05:49:43.154Z,4.60
2022-12-02T05:52:15.860Z,4.60
2022-12-02T05:54:42.760Z,4.50
2022-12-02T05:57:12.341Z,4.50
2022-12-02T05:59:39.283Z,4.50
2022-12-02T06:02:29.707Z,4.50
2022-12-02T06:04:56.973Z,4.50
2022-12-02T06:07:24.533Z,4.60
2022-12-02T06:09:56.132Z,4.50
2022-12-02T06:12:23.057Z,4.40
2022-12-02T06:14:54.975Z,4.40
2022-12-02T06:17:25.316Z,4.50
2022-12-02T06:19:57.471Z,4.50
2022-12-02T06:22:29.649Z,4.50
2022-12-02T06:25:00.085Z,4.50
2022-12-02T06:27:28.280Z,4.50
2022-12-02T06:30:05.427Z,4.50
2022-12-02T06:32:38.335Z,4.50
2022-12-02T06:35:22.421Z,4.50
2022-12-02T06:37:50.700Z,4.40
2022-12-02T06:40:31.248Z,4.40
2022-12-02T06:42:59.705Z,4.50
2022-12-02T06:45:34.680Z,4.50
2022-12-02T06:48:21.428Z,4.50
2022-12-02T06:50:49.058Z,4.50
2022-12-02T06:53:37.859Z,4.50
2022-12-02T06:56:11.807Z,4.50
2022-12-02T06:58:47.762Z,4.60
2022-12-02T07:01:42.992Z,4.60
2022-12-02T07:04:09.902Z,4.60
2022-12-02T07:06:44.845Z,4.60
2022-12-02T07:09:39.841Z,4.70
2022-12-02T07:12:35.124Z,4.60
2022-12-02T07:15:16.843Z,4.60
2022-12-02T07:17:44.426Z,4.60
2022-12-02T07:20:29.794Z,4.60
2022-12-02T07:23:02.966Z,4.60
2022-12-02T07:25:35.769Z,4.50
2022-12-02T07:28:18.796Z,4.40
2022-12-02T07:31:09.611Z,4.40
2022-12-02T07:33:36.655Z,4.50
2022-12-02T07:36:03.695Z,4.50
2022-12-02T07:39:04.313Z,4.50
2022-12-02T07:41:19.650Z,4.40
2022-12-02T07:43:46.628Z,4.40
2022-12-02T07:46:13.691Z,4.40
2022-12-02T07:48:40.655Z,4.40
2022-12-02T07:51:07.999Z,4.50
2022-12-02T07:53:34.999Z,4.60
2022-12-02T07:56:02.037Z,4.60
2022-12-02T07:58:48.400Z,4.70
2022-12-02T08:01:19.270Z,4.80
2022-12-02T08:03:47.002Z,4.80
2022-12-02T08:06:14.016Z,4.80
2022-12-02T08:08:40.929Z,4.90
2022-12-02T08:11:07.924Z,4.90
2022-12-02T08:13:34.852Z,5.00
2022-12-02T08:16:01.754Z,5.00
2022-12-02T08:18:28.678Z,5.00
2022-12-02T08:20:55.670Z,5.00
2022-12-02T08:23:22.623Z,5.10
2022-12-02T08:25:49.631Z,5.10
2022-12-02T08:28:16.659Z,5.20
2022-12-02T08:30:43.581Z,5.20
2022-12-02T08:33:10.574Z,5.20
2022-12-02T08:35:39.861Z,5.10
2022-12-02T08:38:07.770Z,5.00
2022-12-02T08:40:35.139Z,5.00
2022-12-02T08:43:02.812Z,5.10
2022-12-02T08:45:30.137Z,5.00
2022-12-02T08:47:57.115Z,5.00
2022-12-02T08:50:24.270Z,5.00
2022-12-02T08:52:55.346Z,5.20
2022-12-02T08:55:25.231Z,5.20
2022-12-02T08:57:52.151Z,5.20
2022-12-02T09:00:19.614Z,5.30
2022-12-02T09:02:46.663Z,5.40
2022-12-02T09:05:13.924Z,5.50
2022-12-02T09:07:41.280Z,5.60
2022-12-02T09:10:11.593Z,5.70
2022-12-02T09:12:38.638Z,5.80
2022-12-02T09:15:06.499Z,5.80
2022-12-02T09:17:33.533Z,5.90
2022-12-02T09:20:00.545Z,5.70
2022-12-02T09:22:27.523Z,5.70
2022-12-02T09:24:54.665Z,5.80
2022-12-02T09:27:21.820Z,5.80
2022-12-02T09:29:48.738Z,5.80
2022-12-02T09:32:15.800Z,5.80
2022-12-02T09:34:42.714Z,5.70
2022-12-02T09:37:09.818Z,5.60
2022-12-02T09:39:39.059Z,5.60
2022-12-02T09:42:08.347Z,5.50
2022-12-02T09:44:36.836Z,5.70
2022-12-02T09:47:04.182Z,5.90
2022-12-02T09:49:32.616Z,6.10
2022-12-02T09:52:03.578Z,6.30
2022-12-02T09:54:30.766Z,6.50
2022-12-02T09:56:59.360Z,6.70
2022-12-02T09:59:26.268Z,6.80
2022-12-02T10:01:55.627Z,6.80
2022-12-02T10:04:23.278Z,6.80
2022-12-02T10:06:50.226Z,6.80
2022-12-02T10:09:29.867Z,6.80
2022-12-02T10:11:57.284Z,6.80
2022-12-02T10:14:24.196Z,6.90
2022-12-02T10:16:53.633Z,6.90
2022-12-02T10:19:21.607Z,6.90
2022-12-02T10:21:52.301Z,7.00
2022-12-02T10:24:38.068Z,7.10
2022-12-02T10:27:05.290Z,7.10
2022-12-02T10:29:32.740Z,7.10
2022-12-02T10:32:05.396Z,7.10
2022-12-02T10:34:34.855Z,7.10
2022-12-02T10:37:24.494Z,7.20
2022-12-02T10:40:16.044Z,7.30
2022-12-02T10:42:43.898Z,7.30
2022-12-02T10:45:31.051Z,7.30
2022-12-02T10:48:16.960Z,7.20
2022-12-02T10:50:45.172Z,6.90
2022-12-02T10:53:17.872Z,6.90
2022-12-02T10:55:46.912Z,7.00
2022-12-02T10:58:26.210Z,7.00
2022-12-02T11:00:53.235Z,7.00
2022-12-02T11:03:20.601Z,7.00
2022-12-02T11:05:48.297Z,6.80
2022-12-02T11:08:27.404Z,6.90
2022-12-02T11:11:13.185Z,6.80
2022-12-02T11:14:00.287Z,6.60
2022-12-02T11:16:27.281Z,6.50
2022-12-02T11:19:08.460Z,6.40
2022-12-02T11:21:37.230Z,6.40
2022-12-02T11:24:23.219Z,6.30
2022-12-02T11:27:02.796Z,6.30
2022-12-02T11:29:33.271Z,6.30
2022-12-02T11:32:18.101Z,6.40
2022-12-02T11:37:48.476Z,6.40
2022-12-02T11:40:18.578Z,6.40
2022-12-02T11:42:46.190Z,6.40
2022-12-02T11:45:16.224Z,6.40
2022-12-02T11:48:00.143Z,6.40
2022-12-02T11:50:38.026Z,6.30
2022-12-02T11:53:25.099Z,6.30
2022-12-02T11:55:54.351Z,6.40
2022-12-02T11:58:28.839Z,6.20
2022-12-02T12:01:13.429Z,6.30
2022-12-02T12:03:45.761Z,6.30
2022-12-02T12:06:15.799Z,6.40
2022-12-02T12:08:49.328Z,6.40
2022-12-02T12:11:35.171Z,6.40
2022-12-02T12:14:14.123Z,6.50
2022-12-02T12:16:44.270Z,6.50
2022-12-02T12:19:15.249Z,6.50
2022-12-02T12:21:52.452Z,6.40
2022-12-02T12:24:23.627Z,6.40
2022-12-02T12:26:52.159Z,6.40
2022-12-02T12:29:21.352Z,6.40
2022-12-02T12:31:48.377Z,6.40
2022-12-02T12:34:18.367Z,6.40
2022-12-02T12:36:46.631Z,6.30
2022-12-02T12:39:14.576Z,6.40
2022-12-02T12:44:32.300Z,6.40
2022-12-02T12:47:05.316Z,6.50
2022-12-02T12:49:34.185Z,6.60
2022-12-02T12:52:01.855Z,6.50
2022-12-02T12:54:29.193Z,6.50
2022-12-02T12:56:56.160Z,6.60
2022-12-02T12:59:23.111Z,6.60
2022-12-02T13:01:50.157Z,6.40
2022-12-02T13:04:17.138Z,6.40
2022-12-02T13:06:44.200Z,6.50
2022-12-02T13:09:11.881Z,6.50
2022-12-02T13:11:39.321Z,6.50
2022-12-02T13:14:07.195Z,6.60
2022-12-02T13:16:34.324Z,6.60
2022-12-02T13:19:01.404Z,6.50
2022-12-02T13:21:28.322Z,6.60
2022-12-02T13:23:55.565Z,6.60
2022-12-02T13:26:22.513Z,6.60
2022-12-02T13:28:53.036Z,6.60
2022-12-02T13:31:20.650Z,6.60
2022-12-02T13:33:47.803Z,6.70
2022-12-02T13:36:14.786Z,6.60
2022-12-02T13:38:41.931Z,6.50
2022-12-02T13:41:08.917Z,6.50
2022-12-02T13:43:35.843Z,6.50
2022-12-02T13:46:03.340Z,6.50
2022-12-02T13:48:30.395Z,6.50
2022-12-02T13:50:57.399Z,6.50
2022-12-02T13:53:24.346Z,6.40
2022-12-02T13:55:51.326Z,6.40
2022-12-02T13:58:18.337Z,6.40
2022-12-02T14:00:45.633Z,6.40
2022-12-02T14:03:12.941Z,6.40
2022-12-02T14:05:40.050Z,6.30
2022-12-02T14:08:07.146Z,6.30
2022-12-02T14:10:34.242Z,6.30
2022-12-02T14:13:01.258Z,6.20
2022-12-02T14:15:28.255Z,6.20
2022-12-02T14:17:55.351Z,6.20
2022-12-02T14:20:22.353Z,6.10
2022-12-02T14:22:49.301Z,6.10
2022-12-02T14:25:16.360Z,6.00
2022-12-02T14:27:43.298Z,5.90
2022-12-02T14:30:10.961Z,5.90
2022-12-02T14:32:38.089Z,5.90
2022-12-02T14:35:06.867Z,5.90
2022-12-02T14:37:34.329Z,5.90
2022-12-02T14:40:04.146Z,5.90
2022-12-02T14:42:31.425Z,5.90
2022-12-02T14:44:58.452Z,6.00
2022-12-02T14:47:25.531Z,6.00
2022-12-02T14:49:52.857Z,6.00
2022-12-02T14:52:19.829Z,6.00
2022-12-02T14:54:46.791Z,5.90
2022-12-02T14:57:15.918Z,5.90
2022-12-02T14:59:42.980Z,5.90
2022-12-02T15:02:14.939Z,5.90
2022-12-02T15:04:42.634Z,6.00
2022-12-02T15:07:09.589Z,5.90
2022-12-02T15:09:36.694Z,5.90
2022-12-02T15:12:03.836Z,5.90
2022-12-02T15:14:31.045Z,5.90
2022-12-02T15:16:57.999Z,5.90
2022-12-02T15:19:25.025Z,5.90
2022-12-02T15:21:52.316Z,5.90
2022-12-02T15:24:19.269Z,5.90
2022-12-02T15:26:48.418Z,5.90
2022-12-02T15:29:17.816Z,5.90
2022-12-02T15:31:44.835Z,5.90
2022-12-02T15:34:11.906Z,5.90
2022-12-02T15:36:38.861Z,5.90
2022-12-02T15:39:05.922Z,5.90
2022-12-02T15:41:32.886Z,5.90
2022-12-02T15:43:59.935Z,5.90
2022-12-02T15:46:27.013Z,5.90
2022-12-02T15:48:54.013Z,5.90
2022-12-02T15:51:21.426Z,5.90
2022-12-02T15:53:48.538Z,5.90
2022-12-02T15:56:18.307Z,5.80
2022-12-02T15:58:47.039Z,5.80
2022-12-02T16:01:14.205Z,5.70
2022-12-02T16:03:43.648Z,5.70
2022-12-02T16:06:10.669Z,5.70
2022-12-02T16:08:37.785Z,5.70
2022-12-02T16:11:04.745Z,5.70
2022-12-02T16:13:32.065Z,5.70
2022-12-02T16:15:59.084Z,5.60
2022-12-02T16:18:27.004Z,5.70
2022-12-02T16:20:55.683Z,5.60
2022-12-02T16:23:23.780Z,5.60
2022-12-02T16:25:50.699Z,5.60
2022-12-02T16:28:17.655Z,5.60
2022-12-02T16:30:44.573Z,5.60
2022-12-02T16:33:11.548Z,5.60
2022-12-02T16:35:38.683Z,5.70
2022-12-02T16:38:05.678Z,5.70
2022-12-02T16:40:32.863Z,5.70
2022-12-02T16:43:01.988Z,5.60
2022-12-02T16:45:29.060Z,5.60
2022-12-02T16:47:57.380Z,5.70
2022-12-02T16:50:24.382Z,5.70
2022-12-02T16:52:51.376Z,5.70
2022-12-02T16:55:18.332Z,5.80
2022-12-02T16:57:45.232Z,5.80
2022-12-02T17:00:12.898Z,5.80
2022-12-02T17:02:42.155Z,5.80
2022-12-02T17:05:10.666Z,5.80
2022-12-02T17:07:38.164Z,5.80
2022-12-02T17:10:05.947Z,5.80
2022-12-02T17:12:32.987Z,5.70
2022-12-02T17:15:00.196Z,5.80
2022-12-02T17:20:15.250Z,5.80
2022-12-02T17:22:43.870Z,5.80
2022-12-02T17:25:13.012Z,5.80
2022-12-02T17:27:41.007Z,5.90
2022-12-02T17:30:09.071Z,5.80
2022-12-02T17:32:36.028Z,5.80
2022-12-02T17:35:03.207Z,5.80
2022-12-02T17:37:30.128Z,5.80
2022-12-02T17:39:57.116Z,5.70
2022-12-02T17:42:24.097Z,5.70
2022-12-02T17:44:51.307Z,5.70
2022-12-02T17:47:18.544Z,5.60
2022-12-02T17:49:45.474Z,5.60
2022-12-02T17:52:20.918Z,5.60
2022-12-02T17:54:48.548Z,5.60
2022-12-02T17:57:15.551Z,5.60
2022-12-02T17:59:42.497Z,5.60
2022-12-02T18:02:11.019Z,5.70
2022-12-02T18:04:38.380Z,5.70
2022-12-02T18:07:09.566Z,5.70
2022-12-02T18:09:37.861Z,5.70
2022-12-02T18:12:05.893Z,5.70
2022-12-02T18:14:33.239Z,5.60
2022-12-02T18:17:00.262Z,5.70
2022-12-02T18:19:27.707Z,5.70
2022-12-02T18:21:54.662Z,5.70
2022-12-02T18:24:21.757Z,5.80
2022-12-02T18:26:48.686Z,5.80
2022-12-02T18:29:15.639Z,5.70
2022-12-02T18:31:42.563Z,5.80
2022-12-02T18:34:09.460Z,5.80
2022-12-02T18:36:36.469Z,5.80
2022-12-02T18:39:03.556Z,5.80
2022-12-02T18:41:30.451Z,5.80
2022-12-02T18:43:57.436Z,5.70
2022-12-02T18:46:24.476Z,5.70
2022-12-02T18:48:51.579Z,5.70
2022-12-02T18:51:18.826Z,5.60
2022-12-02T18:53:45.717Z,5.60
2022-12-02T18:56:12.684Z,5.70
2022-12-02T18:58:39.683Z,5.70
2022-12-02T19:01:06.748Z,5.70
2022-12-02T19:03:33.732Z,5.70
2022-12-02T19:06:00.667Z,5.70
2022-12-02T19:08:27.611Z,5.70
2022-12-02T19:10:54.576Z,5.70
2022-12-02T19:13:21.533Z,5.80
2022-12-02T19:15:48.456Z,5.80
2022-12-02T19:18:15.535Z,5.70
2022-12-02T19:20:42.449Z,5.70
2022-12-02T19:23:09.957Z,5.70
2022-12-02T19:25:42.609Z,5.80
2022-12-02T19:28:12.016Z,5.80
2022-12-02T19:30:38.991Z,5.70
2022-12-02T19:33:06.039Z,5.70
2022-12-02T19:35:33.165Z,5.70
2022-12-02T19:38:05.002Z,5.70
2022-12-02T19:40:44.337Z,5.70
2022-12-02T19:43:12.296Z,5.70
2022-12-02T19:45:39.292Z,5.80
2022-12-02T19:48:06.308Z,5.80
2022-12-02T19:50:33.317Z,5.90
2022-12-02T19:53:00.339Z,5.90
2022-12-02T19:55:27.306Z,5.90
2022-12-02T19:57:54.252Z,5.90
2022-12-02T20:00:21.963Z,6.00
2022-12-02T20:02:48.978Z,6.00
2022-12-02T20:05:18.929Z,5.90
2022-12-02T20:07:45.994Z,5.90
2022-12-02T20:10:13.775Z,5.90
2022-12-02T20:12:40.785Z,5.90
2022-12-02T20:15:08.324Z,5.80
2022-12-02T20:17:35.499Z,5.80
2022-12-02T20:20:04.084Z,5.80
2022-12-02T20:22:31.132Z,5.90
2022-12-02T20:24:58.044Z,5.90
2022-12-02T20:27:25.033Z,5.90
2022-12-02T20:29:51.960Z,5.90
2022-12-02T20:32:19.132Z,5.90
2022-12-02T20:34:46.139Z,5.90
2022-12-02T20:37:13.189Z,5.90
2022-12-02T20:39:40.410Z,6.00
2022-12-02T20:42:07.390Z,6.00
2022-12-02T20:44:34.426Z,5.90
2022-12-02T20:47:01.568Z,5.80
2022-12-02T20:49:28.615Z,5.80
2022-12-02T20:51:55.632Z,5.70
2022-12-02T20:54:22.541Z,5.80
2022-12-02T20:56:49.478Z,5.80
2022-12-02T20:59:16.469Z,5.90
2022-12-02T21:01:43.592Z,5.90
2022-12-02T21:04:10.692Z,5.90
2022-12-02T21:06:37.648Z,6.00
2022-12-02T21:09:05.668Z,6.00
2022-12-02T21:11:32.659Z,6.00
2022-12-02T21:13:59.573Z,5.90
2022-12-02T21:16:26.679Z,5.90
2022-12-02T21:18:53.634Z,6.00
2022-12-02T21:21:20.570Z,6.10
2022-12-02T21:23:47.488Z,6.10
2022-12-02T21:26:14.479Z,6.00
2022-12-02T21:28:41.607Z,6.10
2022-12-02T21:31:08.684Z,6.00
2022-12-02T21:33:35.713Z,6.00
2022-12-02T21:36:02.758Z,6.00
2022-12-02T21:38:30.905Z,5.90
2022-12-02T21:40:57.989Z,5.90
2022-12-02T21:43:25.022Z,6.00
2022-12-02T21:45:52.160Z,6.00
2022-12-02T21:48:19.266Z,6.00
2022-12-02T21:50:46.199Z,6.00
2022-12-02T21:53:13.149Z,5.90
2022-12-02T21:55:40.103Z,5.90
2022-12-02T21:58:07.593Z,6.00
2022-12-02T22:00:34.587Z,6.00
2022-12-02T22:03:02.900Z,5.90
2022-12-02T22:05:29.953Z,5.90
2022-12-02T22:07:56.973Z,5.80
2022-12-02T22:10:25.944Z,5.90
2022-12-02T22:12:53.492Z,5.90
2022-12-02T22:15:22.632Z,5.90
2022-12-02T22:17:49.678Z,6.00
2022-12-02T22:20:18.171Z,5.80
2022-12-02T22:22:45.218Z,5.90
2022-12-02T22:25:12.505Z,5.80
2022-12-02T22:27:39.450Z,5.90
2022-12-02T22:30:07.798Z,5.90
2022-12-02T22:32:35.391Z,5.90
2022-12-02T22:35:03.592Z,6.00
2022-12-02T22:37:30.495Z,6.00
2022-12-02T22:39:57.428Z,6.00
2022-12-02T22:42:24.349Z,5.90
2022-12-02T22:44:56.287Z,5.90
2022-12-02T22:47:23.279Z,5.90
2022-12-02T22:49:50.181Z,5.90
2022-12-02T22:52:17.099Z,5.90
2022-12-02T22:54:44.028Z,6.00
2022-12-02T22:57:10.920Z,6.00
2022-12-02T22:59:37.907Z,6.00
2022-12-02T23:02:04.879Z,6.00
2022-12-02T23:04:31.997Z,6.00
2022-12-02T23:06:58.958Z,6.00
2022-12-02T23:09:25.876Z,6.00
2022-12-02T23:11:52.831Z,6.10
2022-12-02T23:14:19.795Z,6.20
2022-12-02T23:16:46.821Z,6.10
2022-12-02T23:19:13.803Z,6.00
2022-12-02T23:21:40.752Z,6.00
2022-12-02T23:24:08.116Z,6.10
2022-12-02T23:26:35.145Z,6.00
2022-12-02T23:29:02.045Z,6.00
2022-12-02T23:31:29.046Z,6.00
2022-12-02T23:33:56.121Z,5.90
2022-12-02T23:36:23.139Z,5.90
2022-12-02T23:38:50.313Z,5.90
2022-12-02T23:41:17.370Z,5.90
2022-12-02T23:43:44.328Z,5.90
2022-12-02T23:46:11.366Z,5.90
2022-12-02T23:48:38.427Z,5.90
2022-12-02T23:51:05.384Z,5.90
2022-12-02T23:53:32.325Z,5.90
2022-12-02T23:55:59.291Z,5.90
2022-12-02T23:58:26.232Z,6.00
